sensor_id;sensor_type;location;lat;lon;timestamp;P1;durP1;ratioP1;P2;durP2;ratioP2
39996;SDS011;25688;52.338;21.072;2024-01-10T09:41:22;94.60;;;32.67;;
39996;SDS011;25688;52.338;21.072;2024-01-10T09:43:50;110.70;;;37.00;;
39996;SDS011;25688;52.338;21.072;2024-01-10T09:46:16;108.63;;;34.20;;
39996;SDS011;25688;52.338;21.072;2024-01-10T09:48:44;106.10;;;34.28;;
39996;SDS011;25688;52.338;21.072;2024-01-10T09:51:10;97.28;;;33.92;;
39996;SDS011;25688;52.338;21.072;2024-01-10T09:53:37;114.22;;;41.30;;
39996;SDS011;25688;52.338;21.072;2024-01-10T09:58:35;104.60;;;36.08;;
39996;SDS011;25688;52.338;21.072;2024-01-10T10:01:05;100.57;;;36.00;;
39996;SDS011;25688;52.338;21.072;2024-01-10T10:03:32;100.68;;;35.13;;
39996;SDS011;25688;52.338;21.072;2024-01-10T10:06:02;107.03;;;36.08;;
39996;SDS011;25688;52.338;21.072;2024-01-10T10:08:28;109.68;;;35.63;;
39996;SDS011;25688;52.338;21.072;2024-01-10T10:10:54;115.63;;;39.67;;
39996;SDS011;25688;52.338;21.072;2024-01-10T10:13:23;107.93;;;37.70;;
39996;SDS011;25688;52.338;21.072;2024-01-10T10:27:29;111.70;;;43.97;;
39996;SDS011;25688;52.338;21.072;2024-01-10T10:29:55;113.32;;;36.92;;
39996;SDS011;25688;52.338;21.072;2024-01-10T10:32:22;101.75;;;35.83;;
39996;SDS011;25688;52.338;21.072;2024-01-10T10:34:48;102.20;;;37.25;;
39996;SDS011;25688;52.338;21.072;2024-01-10T10:37:13;96.00;;;36.42;;
39996;SDS011;25688;52.338;21.072;2024-01-10T10:39:40;97.20;;;37.33;;
39996;SDS011;25688;52.338;21.072;2024-01-10T10:42:06;94.38;;;35.83;;
39996;SDS011;25688;52.338;21.072;2024-01-10T10:44:32;93.53;;;34.47;;
39996;SDS011;25688;52.338;21.072;2024-01-10T10:47:05;106.70;;;35.67;;
39996;SDS011;25688;52.338;21.072;2024-01-10T10:49:35;95.70;;;35.08;;
39996;SDS011;25688;52.338;21.072;2024-01-10T10:52:12;91.10;;;32.88;;
39996;SDS011;25688;52.338;21.072;2024-01-10T10:54:40;104.18;;;36.58;;
39996;SDS011;25688;52.338;21.072;2024-01-10T10:57:06;96.60;;;33.28;;
39996;SDS011;25688;52.338;21.072;2024-01-10T10:59:33;98.18;;;36.00;;
39996;SDS011;25688;52.338;21.072;2024-01-10T11:02:01;109.78;;;36.63;;
39996;SDS011;25688;52.338;21.072;2024-01-10T11:04:26;95.03;;;34.42;;
39996;SDS011;25688;52.338;21.072;2024-01-10T12:19:57;83.40;;;28.98;;
39996;SDS011;25688;52.338;21.072;2024-01-10T14:34:40;84.45;;;32.25;;
39996;SDS011;25688;52.338;21.072;2024-01-10T14:37:06;85.40;;;30.15;;
39996;SDS011;25688;52.338;21.072;2024-01-10T14:39:33;77.90;;;30.70;;
39996;SDS011;25688;52.338;21.072;2024-01-10T14:42:04;85.10;;;29.38;;
39996;SDS011;25688;52.338;21.072;2024-01-10T14:44:34;89.53;;;30.67;;
39996;SDS011;25688;52.338;21.072;2024-01-10T14:47:00;90.85;;;29.42;;
39996;SDS011;25688;52.338;21.072;2024-01-10T14:49:26;94.68;;;29.77;;
39996;SDS011;25688;52.338;21.072;2024-01-10T14:51:52;87.05;;;30.65;;
39996;SDS011;25688;52.338;21.072;2024-01-10T14:54:18;90.40;;;32.95;;
39996;SDS011;25688;52.338;21.072;2024-01-10T14:56:44;94.68;;;32.03;;
39996;SDS011;25688;52.338;21.072;2024-01-10T14:59:10;92.68;;;31.48;;
39996;SDS011;25688;52.338;21.072;2024-01-10T15:01:36;90.95;;;30.33;;
39996;SDS011;25688;52.338;21.072;2024-01-10T15:04:02;96.15;;;29.77;;
39996;SDS011;25688;52.338;21.072;2024-01-10T15:06:28;91.55;;;29.40;;
39996;SDS011;25688;52.338;21.072;2024-01-10T15:08:54;91.38;;;30.15;;
39996;SDS011;25688;52.338;21.072;2024-01-10T15:11:20;95.00;;;33.13;;
39996;SDS011;25688;52.338;21.072;2024-01-10T15:13:46;94.70;;;32.30;;
39996;SDS011;25688;52.338;21.072;2024-01-10T15:16:11;84.80;;;29.95;;
39996;SDS011;25688;52.338;21.072;2024-01-10T15:18:37;93.10;;;31.58;;
39996;SDS011;25688;52.338;21.072;2024-01-10T15:21:03;85.55;;;30.52;;
39996;SDS011;25688;52.338;21.072;2024-01-10T15:23:30;88.85;;;30.63;;
39996;SDS011;25688;52.338;21.072;2024-01-10T15:25:56;87.97;;;29.30;;
39996;SDS011;25688;52.338;21.072;2024-01-10T15:28:22;83.55;;;30.15;;
39996;SDS011;25688;52.338;21.072;2024-01-10T15:30:48;93.38;;;33.42;;
39996;SDS011;25688;52.338;21.072;2024-01-10T15:33:13;82.35;;;29.70;;
39996;SDS011;25688;52.338;21.072;2024-01-10T15:35:39;84.82;;;30.88;;
39996;SDS011;25688;52.338;21.072;2024-01-10T15:38:05;84.80;;;30.58;;
39996;SDS011;25688;52.338;21.072;2024-01-10T15:40:31;82.85;;;30.83;;
39996;SDS011;25688;52.338;21.072;2024-01-10T15:42:57;87.07;;;30.45;;
39996;SDS011;25688;52.338;21.072;2024-01-10T15:45:23;97.85;;;32.58;;
39996;SDS011;25688;52.338;21.072;2024-01-10T15:47:49;89.88;;;32.53;;
39996;SDS011;25688;52.338;21.072;2024-01-10T15:50:15;84.75;;;30.95;;
39996;SDS011;25688;52.338;21.072;2024-01-10T15:52:40;87.85;;;32.30;;
39996;SDS011;25688;52.338;21.072;2024-01-10T15:55:06;95.70;;;31.25;;
39996;SDS011;25688;52.338;21.072;2024-01-10T15:57:33;83.50;;;29.80;;
39996;SDS011;25688;52.338;21.072;2024-01-10T15:59:59;87.97;;;32.40;;
39996;SDS011;25688;52.338;21.072;2024-01-10T16:02:26;88.80;;;27.05;;
39996;SDS011;25688;52.338;21.072;2024-01-10T16:04:52;78.47;;;29.33;;
39996;SDS011;25688;52.338;21.072;2024-01-10T16:07:18;88.10;;;29.95;;
39996;SDS011;25688;52.338;21.072;2024-01-10T16:09:46;84.40;;;30.80;;
39996;SDS011;25688;52.338;21.072;2024-01-10T16:12:12;84.43;;;30.85;;
39996;SDS011;25688;52.338;21.072;2024-01-10T16:14:37;91.93;;;30.52;;
39996;SDS011;25688;52.338;21.072;2024-01-10T16:17:04;96.75;;;31.38;;
39996;SDS011;25688;52.338;21.072;2024-01-10T16:19:30;93.13;;;30.13;;
39996;SDS011;25688;52.338;21.072;2024-01-10T16:21:55;92.45;;;27.70;;
39996;SDS011;25688;52.338;21.072;2024-01-10T16:24:21;89.55;;;29.52;;
39996;SDS011;25688;52.338;21.072;2024-01-10T16:26:46;87.97;;;28.55;;
39996;SDS011;25688;52.338;21.072;2024-01-10T16:29:12;90.45;;;30.60;;
39996;SDS011;25688;52.338;21.072;2024-01-10T16:31:38;89.80;;;29.70;;
39996;SDS011;25688;52.338;21.072;2024-01-10T16:34:03;100.72;;;29.80;;
39996;SDS011;25688;52.338;21.072;2024-01-10T16:36:29;99.82;;;29.35;;
39996;SDS011;25688;52.338;21.072;2024-01-10T16:38:55;91.55;;;27.20;;
39996;SDS011;25688;52.338;21.072;2024-01-10T16:41:26;84.97;;;27.83;;
39996;SDS011;25688;52.338;21.072;2024-01-10T16:43:52;98.00;;;29.33;;
39996;SDS011;25688;52.338;21.072;2024-01-10T16:46:18;103.75;;;32.83;;
39996;SDS011;25688;52.338;21.072;2024-01-10T16:48:44;102.15;;;31.08;;
39996;SDS011;25688;52.338;21.072;2024-01-10T16:51:10;100.53;;;27.35;;
39996;SDS011;25688;52.338;21.072;2024-01-10T16:53:36;107.70;;;34.80;;
39996;SDS011;25688;52.338;21.072;2024-01-10T16:56:02;115.40;;;34.13;;
39996;SDS011;25688;52.338;21.072;2024-01-10T16:58:28;99.95;;;32.50;;
39996;SDS011;25688;52.338;21.072;2024-01-10T17:00:54;86.72;;;32.20;;
39996;SDS011;25688;52.338;21.072;2024-01-10T17:03:20;101.78;;;33.35;;
39996;SDS011;25688;52.338;21.072;2024-01-10T17:05:46;110.68;;;37.30;;
39996;SDS011;25688;52.338;21.072;2024-01-10T17:08:12;108.05;;;34.25;;
39996;SDS011;25688;52.338;21.072;2024-01-10T17:10:38;109.43;;;37.75;;
39996;SDS011;25688;52.338;21.072;2024-01-10T17:13:04;117.55;;;34.53;;
39996;SDS011;25688;52.338;21.072;2024-01-10T17:15:29;100.63;;;34.58;;
39996;SDS011;25688;52.338;21.072;2024-01-10T17:17:55;117.25;;;35.35;;
39996;SDS011;25688;52.338;21.072;2024-01-10T17:20:22;107.43;;;35.63;;
39996;SDS011;25688;52.338;21.072;2024-01-10T17:22:50;122.28;;;34.53;;
39996;SDS011;25688;52.338;21.072;2024-01-10T17:25:17;108.13;;;35.55;;
39996;SDS011;25688;52.338;21.072;2024-01-10T17:27:44;131.98;;;39.28;;
39996;SDS011;25688;52.338;21.072;2024-01-10T17:30:10;106.97;;;35.95;;
39996;SDS011;25688;52.338;21.072;2024-01-10T17:32:36;113.28;;;35.83;;
39996;SDS011;25688;52.338;21.072;2024-01-10T17:35:01;107.43;;;34.25;;
39996;SDS011;25688;52.338;21.072;2024-01-10T17:37:29;121.80;;;37.75;;
39996;SDS011;25688;52.338;21.072;2024-01-10T17:39:54;107.13;;;36.60;;
39996;SDS011;25688;52.338;21.072;2024-01-10T17:42:20;99.72;;;34.40;;
39996;SDS011;25688;52.338;21.072;2024-01-10T17:44:46;114.15;;;36.05;;
39996;SDS011;25688;52.338;21.072;2024-01-10T17:47:12;104.95;;;38.58;;
39996;SDS011;25688;52.338;21.072;2024-01-10T17:49:40;106.43;;;34.53;;
39996;SDS011;25688;52.338;21.072;2024-01-10T17:52:06;111.78;;;37.53;;
39996;SDS011;25688;52.338;21.072;2024-01-10T17:54:32;109.38;;;36.00;;
39996;SDS011;25688;52.338;21.072;2024-01-10T17:56:57;113.35;;;36.05;;
39996;SDS011;25688;52.338;21.072;2024-01-10T18:01:58;140.35;;;41.08;;
39996;SDS011;25688;52.338;21.072;2024-01-10T18:04:42;119.90;;;36.67;;
39996;SDS011;25688;52.338;21.072;2024-01-10T18:07:17;143.10;;;39.80;;
39996;SDS011;25688;52.338;21.072;2024-01-10T18:19:29;117.38;;;32.40;;
39996;SDS011;25688;52.338;21.072;2024-01-10T18:21:57;111.57;;;31.30;;
39996;SDS011;25688;52.338;21.072;2024-01-10T18:24:26;117.00;;;35.80;;
39996;SDS011;25688;52.338;21.072;2024-01-10T18:26:51;138.57;;;41.13;;
39996;SDS011;25688;52.338;21.072;2024-01-10T18:29:17;120.68;;;37.85;;
39996;SDS011;25688;52.338;21.072;2024-01-10T18:31:43;134.15;;;40.58;;
39996;SDS011;25688;52.338;21.072;2024-01-10T18:34:08;125.93;;;41.83;;
39996;SDS011;25688;52.338;21.072;2024-01-10T18:36:34;125.30;;;33.05;;
39996;SDS011;25688;52.338;21.072;2024-01-10T18:39:11;115.60;;;34.20;;
39996;SDS011;25688;52.338;21.072;2024-01-10T18:41:37;128.32;;;33.30;;
39996;SDS011;25688;52.338;21.072;2024-01-10T18:44:04;108.32;;;31.75;;
39996;SDS011;25688;52.338;21.072;2024-01-10T18:46:29;118.13;;;33.20;;
39996;SDS011;25688;52.338;21.072;2024-01-10T18:48:55;118.10;;;34.80;;
39996;SDS011;25688;52.338;21.072;2024-01-10T18:51:21;125.60;;;35.25;;
39996;SDS011;25688;52.338;21.072;2024-01-10T18:53:52;115.28;;;36.85;;
39996;SDS011;25688;52.338;21.072;2024-01-10T19:01:51;104.25;;;29.90;;
39996;SDS011;25688;52.338;21.072;2024-01-10T19:04:17;128.63;;;36.97;;
39996;SDS011;25688;52.338;21.072;2024-01-10T19:06:42;126.93;;;35.65;;
39996;SDS011;25688;52.338;21.072;2024-01-10T19:09:10;123.13;;;34.13;;
39996;SDS011;25688;52.338;21.072;2024-01-10T19:14:40;140.38;;;35.22;;
39996;SDS011;25688;52.338;21.072;2024-01-10T19:17:07;128.73;;;36.80;;
39996;SDS011;25688;52.338;21.072;2024-01-10T19:19:33;140.85;;;41.45;;
39996;SDS011;25688;52.338;21.072;2024-01-10T19:22:03;102.82;;;32.88;;
39996;SDS011;25688;52.338;21.072;2024-01-10T19:24:34;135.88;;;37.47;;
39996;SDS011;25688;52.338;21.072;2024-01-10T19:27:10;131.25;;;38.40;;
39996;SDS011;25688;52.338;21.072;2024-01-10T19:29:39;128.30;;;38.60;;
39996;SDS011;25688;52.338;21.072;2024-01-10T19:32:12;127.65;;;36.90;;
39996;SDS011;25688;52.338;21.072;2024-01-10T19:34:50;129.38;;;38.00;;
39996;SDS011;25688;52.338;21.072;2024-01-10T19:37:16;117.15;;;35.95;;
39996;SDS011;25688;52.338;21.072;2024-01-10T19:43:26;133.05;;;35.33;;
39996;SDS011;25688;52.338;21.072;2024-01-10T19:48:50;125.03;;;35.80;;
39996;SDS011;25688;52.338;21.072;2024-01-10T19:51:30;131.82;;;37.35;;
39996;SDS011;25688;52.338;21.072;2024-01-10T19:54:16;130.37;;;36.00;;
39996;SDS011;25688;52.338;21.072;2024-01-10T19:56:50;121.63;;;40.22;;
39996;SDS011;25688;52.338;21.072;2024-01-10T20:02:11;124.20;;;34.85;;
39996;SDS011;25688;52.338;21.072;2024-01-10T20:04:37;119.70;;;35.55;;
39996;SDS011;25688;52.338;21.072;2024-01-10T20:13:23;123.13;;;33.53;;
39996;SDS011;25688;52.338;21.072;2024-01-10T20:15:49;122.85;;;34.97;;
39996;SDS011;25688;52.338;21.072;2024-01-10T20:18:36;119.45;;;35.97;;
39996;SDS011;25688;52.338;21.072;2024-01-10T20:21:14;112.72;;;34.58;;
39996;SDS011;25688;52.338;21.072;2024-01-10T20:23:46;122.40;;;33.63;;
39996;SDS011;25688;52.338;21.072;2024-01-10T20:26:30;112.97;;;34.83;;
39996;SDS011;25688;52.338;21.072;2024-01-10T20:29:08;120.82;;;32.17;;
39996;SDS011;25688;52.338;21.072;2024-01-10T20:34:43;101.72;;;31.10;;
39996;SDS011;25688;52.338;21.072;2024-01-10T20:39:53;103.78;;;31.20;;
39996;SDS011;25688;52.338;21.072;2024-01-10T20:42:19;109.38;;;31.65;;
39996;SDS011;25688;52.338;21.072;2024-01-10T20:48:03;106.40;;;30.27;;
39996;SDS011;25688;52.338;21.072;2024-01-10T20:50:40;105.07;;;30.95;;
39996;SDS011;25688;52.338;21.072;2024-01-10T20:53:23;106.75;;;31.75;;
39996;SDS011;25688;52.338;21.072;2024-01-10T20:56:24;100.00;;;31.10;;
39996;SDS011;25688;52.338;21.072;2024-01-10T20:59:01;120.07;;;34.60;;
39996;SDS011;25688;52.338;21.072;2024-01-10T21:02:25;108.63;;;28.98;;
39996;SDS011;25688;52.338;21.072;2024-01-10T21:07:40;107.18;;;30.92;;
39996;SDS011;25688;52.338;21.072;2024-01-10T21:12:41;98.50;;;30.15;;
39996;SDS011;25688;52.338;21.072;2024-01-10T21:15:06;103.47;;;32.58;;
39996;SDS011;25688;52.338;21.072;2024-01-10T21:17:34;102.57;;;30.13;;
39996;SDS011;25688;52.338;21.072;2024-01-10T21:31:16;98.65;;;30.33;;
39996;SDS011;25688;52.338;21.072;2024-01-10T21:33:41;95.47;;;27.73;;
39996;SDS011;25688;52.338;21.072;2024-01-10T21:36:07;97.43;;;28.60;;
39996;SDS011;25688;52.338;21.072;2024-01-10T21:38:33;95.90;;;29.80;;
39996;SDS011;25688;52.338;21.072;2024-01-10T21:41:20;81.40;;;27.30;;
39996;SDS011;25688;52.338;21.072;2024-01-10T21:46:20;84.03;;;27.92;;
39996;SDS011;25688;52.338;21.072;2024-01-10T21:48:49;86.85;;;25.13;;
39996;SDS011;25688;52.338;21.072;2024-01-10T21:54:51;78.57;;;27.05;;
39996;SDS011;25688;52.338;21.072;2024-01-10T21:57:40;89.68;;;25.20;;
39996;SDS011;25688;52.338;21.072;2024-01-10T22:00:09;81.50;;;25.40;;
39996;SDS011;25688;52.338;21.072;2024-01-10T22:55:52;104.35;;;31.90;;
39996;SDS011;25688;52.338;21.072;2024-01-10T23:06:31;94.63;;;30.20;;
39996;SDS011;25688;52.338;21.072;2024-01-10T23:09:43;108.60;;;32.15;;
39996;SDS011;25688;52.338;21.072;2024-01-10T23:44:52;103.88;;;34.10;;
39996;SDS011;25688;52.338;21.072;2024-01-10T23:47:18;125.32;;;37.20;;
39996;SDS011;25688;52.338;21.072;2024-01-10T23:56:43;113.80;;;37.17;;
